sensor_id;sensor_type;location;lat;lon;timestamp;temperature;humidity
23713;DHT22;12035;49.978;8.298;2024-03-22T00:02:59;16.00;58.90
23713;DHT22;12035;49.978;8.298;2024-03-22T00:08:09;16.00;59.20
23713;DHT22;12035;49.978;8.298;2024-03-22T00:13:06;16.00;59.50
23713;DHT22;12035;49.978;8.298;2024-03-22T00:18:04;15.90;59.20
23713;DHT22;12035;49.978;8.298;2024-03-22T00:23:02;15.90;59.40
23713;DHT22;12035;49.978;8.298;2024-03-22T00:28:00;15.90;59.60
23713;DHT22;12035;49.978;8.298;2024-03-22T00:32:57;15.80;59.60
23713;DHT22;12035;49.978;8.298;2024-03-22T00:37:54;15.80;59.70
23713;DHT22;12035;49.978;8.298;2024-03-22T00:42:52;15.80;59.80
23713;DHT22;12035;49.978;8.298;2024-03-22T00:47:49;15.70;60.00
23713;DHT22;12035;49.978;8.298;2024-03-22T00:52:46;15.60;60.00
23713;DHT22;12035;49.978;8.298;2024-03-22T00:57:43;15.60;60.00
23713;DHT22;12035;49.978;8.298;2024-03-22T01:02:41;15.50;60.20
23713;DHT22;12035;49.978;8.298;2024-03-22T01:07:39;15.40;60.60
23713;DHT22;12035;49.978;8.298;2024-03-22T01:12:36;15.40;60.60
23713;DHT22;12035;49.978;8.298;2024-03-22T01:17:34;15.30;60.70
23713;DHT22;12035;49.978;8.298;2024-03-22T01:22:32;15.30;60.80
23713;DHT22;12035;49.978;8.298;2024-03-22T01:27:29;15.30;61.00
23713;DHT22;12035;49.978;8.298;2024-03-22T01:32:26;15.20;60.80
23713;DHT22;12035;49.978;8.298;2024-03-22T01:37:24;15.10;60.90
23713;DHT22;12035;49.978;8.298;2024-03-22T01:42:22;15.10;61.10
23713;DHT22;12035;49.978;8.298;2024-03-22T01:47:19;15.10;61.30
23713;DHT22;12035;49.978;8.298;2024-03-22T01:52:16;15.00;61.30
23713;DHT22;12035;49.978;8.298;2024-03-22T01:57:13;15.00;61.40
23713;DHT22;12035;49.978;8.298;2024-03-22T02:02:12;14.90;61.40
23713;DHT22;12035;49.978;8.298;2024-03-22T02:07:09;14.90;61.60
23713;DHT22;12035;49.978;8.298;2024-03-22T02:12:06;14.80;61.60
23713;DHT22;12035;49.978;8.298;2024-03-22T02:17:04;14.80;61.60
23713;DHT22;12035;49.978;8.298;2024-03-22T02:22:02;14.80;61.80
23713;DHT22;12035;49.978;8.298;2024-03-22T02:27:00;14.70;62.00
23713;DHT22;12035;49.978;8.298;2024-03-22T02:31:57;14.60;62.00
23713;DHT22;12035;49.978;8.298;2024-03-22T02:36:54;14.60;61.90
23713;DHT22;12035;49.978;8.298;2024-03-22T02:41:51;14.50;62.10
23713;DHT22;12035;49.978;8.298;2024-03-22T02:46:50;14.40;62.10
23713;DHT22;12035;49.978;8.298;2024-03-22T02:51:47;14.40;62.50
23713;DHT22;12035;49.978;8.298;2024-03-22T02:56:44;14.30;62.50
23713;DHT22;12035;49.978;8.298;2024-03-22T03:01:41;14.30;62.70
23713;DHT22;12035;49.978;8.298;2024-03-22T03:06:39;14.20;62.70
23713;DHT22;12035;49.978;8.298;2024-03-22T03:11:37;14.20;63.00
23713;DHT22;12035;49.978;8.298;2024-03-22T03:16:34;14.20;62.80
23713;DHT22;12035;49.978;8.298;2024-03-22T03:21:31;14.10;63.00
23713;DHT22;12035;49.978;8.298;2024-03-22T03:26:30;14.10;63.40
23713;DHT22;12035;49.978;8.298;2024-03-22T03:31:27;14.10;63.60
23713;DHT22;12035;49.978;8.298;2024-03-22T03:36:24;14.10;63.70
23713;DHT22;12035;49.978;8.298;2024-03-22T03:41:21;14.10;63.90
23713;DHT22;12035;49.978;8.298;2024-03-22T03:46:20;14.10;64.10
23713;DHT22;12035;49.978;8.298;2024-03-22T03:51:17;14.10;64.40
23713;DHT22;12035;49.978;8.298;2024-03-22T03:56:14;14.10;64.40
23713;DHT22;12035;49.978;8.298;2024-03-22T04:01:11;14.10;64.50
23713;DHT22;12035;49.978;8.298;2024-03-22T04:06:09;14.10;64.60
23713;DHT22;12035;49.978;8.298;2024-03-22T04:11:06;14.10;64.90
23713;DHT22;12035;49.978;8.298;2024-03-22T04:16:04;14.10;64.90
23713;DHT22;12035;49.978;8.298;2024-03-22T04:21:02;14.10;65.10
23713;DHT22;12035;49.978;8.298;2024-03-22T04:26:01;14.10;65.30
23713;DHT22;12035;49.978;8.298;2024-03-22T04:31:00;14.10;65.90
23713;DHT22;12035;49.978;8.298;2024-03-22T04:35:59;14.10;65.60
23713;DHT22;12035;49.978;8.298;2024-03-22T04:40:56;14.10;65.70
23713;DHT22;12035;49.978;8.298;2024-03-22T04:45:55;14.00;65.90
23713;DHT22;12035;49.978;8.298;2024-03-22T04:50:52;14.00;65.90
23713;DHT22;12035;49.978;8.298;2024-03-22T04:55:50;14.10;65.90
23713;DHT22;12035;49.978;8.298;2024-03-22T05:00:48;14.10;65.90
23713;DHT22;12035;49.978;8.298;2024-03-22T05:05:47;14.10;65.90
23713;DHT22;12035;49.978;8.298;2024-03-22T05:10:44;14.20;66.20
23713;DHT22;12035;49.978;8.298;2024-03-22T05:15:41;14.20;66.10
23713;DHT22;12035;49.978;8.298;2024-03-22T05:20:38;14.20;66.20
23713;DHT22;12035;49.978;8.298;2024-03-22T05:25:37;14.20;66.20
23713;DHT22;12035;49.978;8.298;2024-03-22T05:30:34;14.20;66.50
23713;DHT22;12035;49.978;8.298;2024-03-22T05:35:31;14.10;66.50
23713;DHT22;12035;49.978;8.298;2024-03-22T05:40:31;14.20;66.80
23713;DHT22;12035;49.978;8.298;2024-03-22T05:45:29;14.10;66.80
23713;DHT22;12035;49.978;8.298;2024-03-22T05:50:27;14.20;67.20
23713;DHT22;12035;49.978;8.298;2024-03-22T05:55:24;14.20;67.20
23713;DHT22;12035;49.978;8.298;2024-03-22T06:00:22;14.20;67.30
23713;DHT22;12035;49.978;8.298;2024-03-22T06:05:22;14.30;67.50
23713;DHT22;12035;49.978;8.298;2024-03-22T06:10:19;14.30;67.80
23713;DHT22;12035;49.978;8.298;2024-03-22T06:15:16;14.40;67.90
23713;DHT22;12035;49.978;8.298;2024-03-22T06:20:13;14.40;68.40
23713;DHT22;12035;49.978;8.298;2024-03-22T06:25:11;14.50;68.40
23713;DHT22;12035;49.978;8.298;2024-03-22T06:30:09;14.60;68.90
23713;DHT22;12035;49.978;8.298;2024-03-22T06:35:07;14.80;68.60
23713;DHT22;12035;49.978;8.298;2024-03-22T06:40:08;14.90;68.30
23713;DHT22;12035;49.978;8.298;2024-03-22T06:45:07;14.90;68.20
23713;DHT22;12035;49.978;8.298;2024-03-22T06:50:05;15.00;68.00
23713;DHT22;12035;49.978;8.298;2024-03-22T06:55:03;15.00;68.00
23713;DHT22;12035;49.978;8.298;2024-03-22T07:00:01;14.90;68.10
23713;DHT22;12035;49.978;8.298;2024-03-22T07:05:00;14.90;68.20
23713;DHT22;12035;49.978;8.298;2024-03-22T07:09:59;14.80;68.60
23713;DHT22;12035;49.978;8.298;2024-03-22T07:14:56;14.80;68.80
23713;DHT22;12035;49.978;8.298;2024-03-22T07:19:54;14.70;69.00
23713;DHT22;12035;49.978;8.298;2024-03-22T07:24:52;14.70;69.20
23713;DHT22;12035;49.978;8.298;2024-03-22T07:29:50;14.70;69.50
23713;DHT22;12035;49.978;8.298;2024-03-22T07:34:47;14.60;69.50
23713;DHT22;12035;49.978;8.298;2024-03-22T07:39:44;14.60;69.90
23713;DHT22;12035;49.978;8.298;2024-03-22T07:44:43;14.60;70.10
23713;DHT22;12035;49.978;8.298;2024-03-22T07:49:40;14.60;70.30
23713;DHT22;12035;49.978;8.298;2024-03-22T07:54:38;14.60;70.30
23713;DHT22;12035;49.978;8.298;2024-03-22T07:59:35;14.60;70.40
23713;DHT22;12035;49.978;8.298;2024-03-22T08:04:34;14.60;70.60
23713;DHT22;12035;49.978;8.298;2024-03-22T08:09:31;14.60;71.00
23713;DHT22;12035;49.978;8.298;2024-03-22T08:14:29;14.50;70.80
23713;DHT22;12035;49.978;8.298;2024-03-22T08:19:26;14.50;71.20
23713;DHT22;12035;49.978;8.298;2024-03-22T08:24:24;14.40;71.40
23713;DHT22;12035;49.978;8.298;2024-03-22T08:29:21;14.40;71.30
23713;DHT22;12035;49.978;8.298;2024-03-22T08:34:18;14.40;71.60
23713;DHT22;12035;49.978;8.298;2024-03-22T08:39:16;14.40;71.70
23713;DHT22;12035;49.978;8.298;2024-03-22T08:44:14;14.40;71.90
23713;DHT22;12035;49.978;8.298;2024-03-22T08:49:13;14.40;72.30
23713;DHT22;12035;49.978;8.298;2024-03-22T08:54:10;14.40;72.50
23713;DHT22;12035;49.978;8.298;2024-03-22T08:59:07;14.40;72.60
23713;DHT22;12035;49.978;8.298;2024-03-22T09:04:05;14.50;72.70
23713;DHT22;12035;49.978;8.298;2024-03-22T09:09:03;14.60;73.00
23713;DHT22;12035;49.978;8.298;2024-03-22T09:14:00;14.70;73.10
23713;DHT22;12035;49.978;8.298;2024-03-22T09:18:58;14.90;73.10
23713;DHT22;12035;49.978;8.298;2024-03-22T09:23:57;15.10;72.90
23713;DHT22;12035;49.978;8.298;2024-03-22T09:28:54;15.20;72.70
23713;DHT22;12035;49.978;8.298;2024-03-22T09:33:51;15.40;72.70
23713;DHT22;12035;49.978;8.298;2024-03-22T09:38:48;15.50;72.80
23713;DHT22;12035;49.978;8.298;2024-03-22T09:43:49;15.70;72.70
23713;DHT22;12035;49.978;8.298;2024-03-22T09:48:48;15.90;72.60
23713;DHT22;12035;49.978;8.298;2024-03-22T09:53:48;16.10;72.40
23713;DHT22;12035;49.978;8.298;2024-03-22T09:58:47;16.20;72.40
23713;DHT22;12035;49.978;8.298;2024-03-22T10:03:44;16.40;72.40
23713;DHT22;12035;49.978;8.298;2024-03-22T10:08:41;16.60;72.40
23713;DHT22;12035;49.978;8.298;2024-03-22T10:13:38;16.80;72.50
23713;DHT22;12035;49.978;8.298;2024-03-22T10:18:37;17.00;72.20
23713;DHT22;12035;49.978;8.298;2024-03-22T10:23:34;17.30;71.80
23713;DHT22;12035;49.978;8.298;2024-03-22T10:28:31;17.50;70.90
23713;DHT22;12035;49.978;8.298;2024-03-22T10:33:28;17.70;69.60
23713;DHT22;12035;49.978;8.298;2024-03-22T10:38:29;17.90;68.40
23713;DHT22;12035;49.978;8.298;2024-03-22T10:43:27;18.10;67.80
23713;DHT22;12035;49.978;8.298;2024-03-22T10:48:25;18.20;66.80
23713;DHT22;12035;49.978;8.298;2024-03-22T10:53:28;18.30;66.20
23713;DHT22;12035;49.978;8.298;2024-03-22T10:58:28;18.50;65.60
23713;DHT22;12035;49.978;8.298;2024-03-22T11:03:26;18.50;65.20
23713;DHT22;12035;49.978;8.298;2024-03-22T11:08:24;18.50;65.10
23713;DHT22;12035;49.978;8.298;2024-03-22T11:13:23;18.60;64.90
23713;DHT22;12035;49.978;8.298;2024-03-22T11:18:21;18.80;64.30
23713;DHT22;12035;49.978;8.298;2024-03-22T11:23:18;18.90;64.30
23713;DHT22;12035;49.978;8.298;2024-03-22T11:28:15;19.00;63.40
23713;DHT22;12035;49.978;8.298;2024-03-22T11:33:14;19.20;63.20
23713;DHT22;12035;49.978;8.298;2024-03-22T11:38:11;19.30;62.70
23713;DHT22;12035;49.978;8.298;2024-03-22T11:43:09;19.40;62.60
23713;DHT22;12035;49.978;8.298;2024-03-22T11:48:07;19.50;62.70
23713;DHT22;12035;49.978;8.298;2024-03-22T11:53:06;19.60;62.90
23713;DHT22;12035;49.978;8.298;2024-03-22T11:58:04;19.80;62.20
23713;DHT22;12035;49.978;8.298;2024-03-22T12:03:01;20.10;62.50
23713;DHT22;12035;49.978;8.298;2024-03-22T12:08:01;20.30;61.30
23713;DHT22;12035;49.978;8.298;2024-03-22T12:13:00;20.50;60.80
23713;DHT22;12035;49.978;8.298;2024-03-22T12:17:57;20.60;60.30
23713;DHT22;12035;49.978;8.298;2024-03-22T12:22:54;20.60;60.30
23713;DHT22;12035;49.978;8.298;2024-03-22T12:27:51;20.70;60.00
23713;DHT22;12035;49.978;8.298;2024-03-22T12:32:49;20.60;60.00
23713;DHT22;12035;49.978;8.298;2024-03-22T12:37:46;20.70;59.20
23713;DHT22;12035;49.978;8.298;2024-03-22T12:42:43;20.60;58.70
23713;DHT22;12035;49.978;8.298;2024-03-22T12:47:41;20.60;59.00
23713;DHT22;12035;49.978;8.298;2024-03-22T12:52:40;20.60;59.30
23713;DHT22;12035;49.978;8.298;2024-03-22T12:57:37;20.60;59.10
23713;DHT22;12035;49.978;8.298;2024-03-22T13:02:34;20.50;59.40
23713;DHT22;12035;49.978;8.298;2024-03-22T13:07:31;20.50;59.20
23713;DHT22;12035;49.978;8.298;2024-03-22T13:12:30;20.50;59.20
23713;DHT22;12035;49.978;8.298;2024-03-22T13:17:29;20.50;58.80
23713;DHT22;12035;49.978;8.298;2024-03-22T13:22:27;20.50;58.70
23713;DHT22;12035;49.978;8.298;2024-03-22T13:27:24;20.40;58.80
23713;DHT22;12035;49.978;8.298;2024-03-22T13:32:23;20.40;58.90
23713;DHT22;12035;49.978;8.298;2024-03-22T13:37:20;20.30;59.00
23713;DHT22;12035;49.978;8.298;2024-03-22T13:42:17;20.30;59.00
23713;DHT22;12035;49.978;8.298;2024-03-22T13:47:15;20.30;59.10
23713;DHT22;12035;49.978;8.298;2024-03-22T13:52:14;20.20;59.20
23713;DHT22;12035;49.978;8.298;2024-03-22T13:57:11;20.10;59.40
23713;DHT22;12035;49.978;8.298;2024-03-22T14:02:08;20.10;59.60
23713;DHT22;12035;49.978;8.298;2024-03-22T14:07:05;20.00;59.60
23713;DHT22;12035;49.978;8.298;2024-03-22T14:12:05;20.00;59.80
23713;DHT22;12035;49.978;8.298;2024-03-22T14:17:02;19.90;59.90
23713;DHT22;12035;49.978;8.298;2024-03-22T14:21:59;19.90;60.00
23713;DHT22;12035;49.978;8.298;2024-03-22T14:26:56;19.90;60.30
23713;DHT22;12035;49.978;8.298;2024-03-22T14:31:55;19.90;60.40
23713;DHT22;12035;49.978;8.298;2024-03-22T14:36:52;19.90;60.40
23713;DHT22;12035;49.978;8.298;2024-03-22T14:41:49;19.90;60.50
23713;DHT22;12035;49.978;8.298;2024-03-22T14:46:45;19.90;60.70
23713;DHT22;12035;49.978;8.298;2024-03-22T14:51:44;19.90;60.90
23713;DHT22;12035;49.978;8.298;2024-03-22T14:56:41;19.90;61.00
23713;DHT22;12035;49.978;8.298;2024-03-22T15:01:38;19.90;61.10
23713;DHT22;12035;49.978;8.298;2024-03-22T15:06:35;20.00;61.40
23713;DHT22;12035;49.978;8.298;2024-03-22T15:11:33;20.00;61.40
23713;DHT22;12035;49.978;8.298;2024-03-22T15:16:31;20.10;61.40
23713;DHT22;12035;49.978;8.298;2024-03-22T15:21:27;20.10;61.30
23713;DHT22;12035;49.978;8.298;2024-03-22T15:26:24;20.10;61.30
23713;DHT22;12035;49.978;8.298;2024-03-22T15:31:23;20.10;61.40
23713;DHT22;12035;49.978;8.298;2024-03-22T15:36:20;20.10;61.50
23713;DHT22;12035;49.978;8.298;2024-03-22T15:41:17;20.10;61.50
23713;DHT22;12035;49.978;8.298;2024-03-22T15:46:15;20.10;61.40
23713;DHT22;12035;49.978;8.298;2024-03-22T15:51:15;20.20;61.30
23713;DHT22;12035;49.978;8.298;2024-03-22T15:56:12;20.20;60.80
23713;DHT22;12035;49.978;8.298;2024-03-22T16:01:09;20.20;60.70
23713;DHT22;12035;49.978;8.298;2024-03-22T16:06:06;20.20;60.30
23713;DHT22;12035;49.978;8.298;2024-03-22T16:11:05;20.20;60.20
23713;DHT22;12035;49.978;8.298;2024-03-22T16:16:02;20.10;60.00
23713;DHT22;12035;49.978;8.298;2024-03-22T16:20:59;20.10;60.00
23713;DHT22;12035;49.978;8.298;2024-03-22T16:25:56;20.10;59.90
23713;DHT22;12035;49.978;8.298;2024-03-22T16:30:55;20.00;59.70
23713;DHT22;12035;49.978;8.298;2024-03-22T16:35:52;20.00;59.60
23713;DHT22;12035;49.978;8.298;2024-03-22T16:40:52;20.00;59.70
23713;DHT22;12035;49.978;8.298;2024-03-22T16:45:49;19.90;59.70
23713;DHT22;12035;49.978;8.298;2024-03-22T16:50:47;19.90;59.90
23713;DHT22;12035;49.978;8.298;2024-03-22T16:55:44;20.00;60.20
23713;DHT22;12035;49.978;8.298;2024-03-22T17:00:41;19.90;60.20
23713;DHT22;12035;49.978;8.298;2024-03-22T17:05:39;19.90;60.10
23713;DHT22;12035;49.978;8.298;2024-03-22T17:10:42;19.80;60.00
23713;DHT22;12035;49.978;8.298;2024-03-22T17:15:39;19.80;60.10
23713;DHT22;12035;49.978;8.298;2024-03-22T17:20:36;19.80;60.00
23713;DHT22;12035;49.978;8.298;2024-03-22T17:25:33;19.70;60.20
23713;DHT22;12035;49.978;8.298;2024-03-22T17:30:33;19.70;60.30
23713;DHT22;12035;49.978;8.298;2024-03-22T17:35:30;19.60;60.30
23713;DHT22;12035;49.978;8.298;2024-03-22T17:40:27;19.50;60.30
23713;DHT22;12035;49.978;8.298;2024-03-22T17:45:24;19.50;60.40
23713;DHT22;12035;49.978;8.298;2024-03-22T17:50:23;19.40;60.60
23713;DHT22;12035;49.978;8.298;2024-03-22T17:55:20;19.30;60.60
23713;DHT22;12035;49.978;8.298;2024-03-22T18:00:17;19.30;60.80
23713;DHT22;12035;49.978;8.298;2024-03-22T18:05:15;19.20;60.80
23713;DHT22;12035;49.978;8.298;2024-03-22T18:10:14;19.20;60.80
23713;DHT22;12035;49.978;8.298;2024-03-22T18:15:12;19.10;60.90
23713;DHT22;12035;49.978;8.298;2024-03-22T18:20:09;19.10;61.00
23713;DHT22;12035;49.978;8.298;2024-03-22T18:25:09;19.10;61.20
23713;DHT22;12035;49.978;8.298;2024-03-22T18:30:08;19.00;62.00
23713;DHT22;12035;49.978;8.298;2024-03-22T18:35:06;19.00;61.30
23713;DHT22;12035;49.978;8.298;2024-03-22T18:40:05;18.90;61.30
23713;DHT22;12035;49.978;8.298;2024-03-22T18:45:04;18.90;61.50
23713;DHT22;12035;49.978;8.298;2024-03-22T18:50:04;18.80;61.70
23713;DHT22;12035;49.978;8.298;2024-03-22T18:55:05;18.70;61.80
23713;DHT22;12035;49.978;8.298;2024-03-22T19:00:03;18.70;61.80
23713;DHT22;12035;49.978;8.298;2024-03-22T19:05:01;18.60;61.80
23713;DHT22;12035;49.978;8.298;2024-03-22T19:10:00;18.50;61.90
23713;DHT22;12035;49.978;8.298;2024-03-22T19:14:57;18.40;62.00
23713;DHT22;12035;49.978;8.298;2024-03-22T19:19:54;18.30;61.90
23713;DHT22;12035;49.978;8.298;2024-03-22T19:24:51;18.30;62.00
23713;DHT22;12035;49.978;8.298;2024-03-22T19:29:50;18.20;62.00
23713;DHT22;12035;49.978;8.298;2024-03-22T19:34:47;18.10;62.00
23713;DHT22;12035;49.978;8.298;2024-03-22T19:39:44;18.00;62.00
23713;DHT22;12035;49.978;8.298;2024-03-22T19:44:41;17.90;61.90
23713;DHT22;12035;49.978;8.298;2024-03-22T19:49:40;17.90;61.80
23713;DHT22;12035;49.978;8.298;2024-03-22T19:54:37;17.80;61.40
23713;DHT22;12035;49.978;8.298;2024-03-22T19:59:34;17.70;62.10
23713;DHT22;12035;49.978;8.298;2024-03-22T20:04:31;17.60;61.20
23713;DHT22;12035;49.978;8.298;2024-03-22T20:09:30;17.50;61.10
23713;DHT22;12035;49.978;8.298;2024-03-22T20:14:27;17.40;61.10
23713;DHT22;12035;49.978;8.298;2024-03-22T20:19:24;17.30;60.80
23713;DHT22;12035;49.978;8.298;2024-03-22T20:24:21;17.30;60.80
23713;DHT22;12035;49.978;8.298;2024-03-22T20:29:20;17.20;61.50
23713;DHT22;12035;49.978;8.298;2024-03-22T20:34:17;17.20;60.50
